createdAt,value
2018-12-06T00:01:21.734Z,9.90
2018-12-06T00:03:32.569Z,8.70
2018-12-06T00:05:43.393Z,8.93
2018-12-06T00:08:06.542Z,6.47
2018-12-06T00:10:17.357Z,7.53
2018-12-06T00:12:28.200Z,7.17
2018-12-06T00:14:39.055Z,7.77
2018-12-06T00:16:53.298Z,8.30
2018-12-06T00:19:06.654Z,6.63
2018-12-06T00:21:17.508Z,6.57
2018-12-06T00:23:28.393Z,7.00
2018-12-06T00:25:39.233Z,6.07
2018-12-06T00:27:50.080Z,6.90
2018-12-06T00:30:13.222Z,7.40
2018-12-06T00:32:24.069Z,6.70
2018-12-06T00:34:34.936Z,6.70
2018-12-06T00:36:45.765Z,6.63
2018-12-06T00:38:56.647Z,8.93
2018-12-06T00:41:07.617Z,9.30
2018-12-06T00:43:18.451Z,9.07
2018-12-06T00:45:29.327Z,8.37
2018-12-06T00:47:40.264Z,9.13
2018-12-06T00:49:51.100Z,10.13
2018-12-06T00:52:01.922Z,10.53
2018-12-06T00:54:12.770Z,9.47
2018-12-06T00:56:23.655Z,10.20
2018-12-06T00:58:34.477Z,10.77
2018-12-06T01:00:45.513Z,9.00
2018-12-06T01:02:56.352Z,10.37
2018-12-06T01:05:07.332Z,10.97
2018-12-06T01:07:18.181Z,10.83
2018-12-06T01:09:29.022Z,10.90
2018-12-06T01:11:39.979Z,12.00
2018-12-06T01:13:50.821Z,11.00
2018-12-06T01:16:01.681Z,9.17
2018-12-06T01:18:12.488Z,10.63
2018-12-06T01:20:23.326Z,10.53
2018-12-06T01:22:34.172Z,12.00
2018-12-06T01:24:45.006Z,12.30
2018-12-06T01:26:55.871Z,12.73
2018-12-06T01:29:06.712Z,11.33
2018-12-06T01:31:17.558Z,12.03
2018-12-06T01:33:28.494Z,14.00
2018-12-06T01:35:39.305Z,12.93
2018-12-06T01:37:50.168Z,14.67
2018-12-06T01:40:01.028Z,12.53
2018-12-06T01:42:11.889Z,13.10
2018-12-06T01:44:22.736Z,15.17
2018-12-06T01:46:33.606Z,11.63
2018-12-06T01:48:44.562Z,12.97
2018-12-06T01:50:55.397Z,12.10
2018-12-06T01:53:06.335Z,10.60
2018-12-06T01:55:17.188Z,12.73
2018-12-06T01:57:28.053Z,12.20
2018-12-06T01:59:38.888Z,11.83
2018-12-06T02:01:49.726Z,10.83
2018-12-06T02:04:00.541Z,12.93
2018-12-06T02:06:11.369Z,10.80
2018-12-06T02:08:22.205Z,12.23
2018-12-06T02:10:33.058Z,10.57
2018-12-06T02:12:43.885Z,9.67
2018-12-06T02:14:54.840Z,10.13
2018-12-06T02:17:05.672Z,12.90
2018-12-06T02:19:16.527Z,9.27
2018-12-06T02:21:27.345Z,9.37
2018-12-06T02:23:38.194Z,11.53
2018-12-06T02:25:49.033Z,10.80
2018-12-06T02:27:59.876Z,12.57
2018-12-06T02:30:10.904Z,9.87
2018-12-06T02:32:21.773Z,10.57
2018-12-06T02:36:49.944Z,10.63
2018-12-06T02:39:00.876Z,9.60
2018-12-06T02:41:11.701Z,12.20
2018-12-06T02:43:22.626Z,10.67
2018-12-06T02:45:33.485Z,13.93
2018-12-06T02:47:44.305Z,10.97
2018-12-06T02:49:55.153Z,8.90
2018-12-06T02:52:06.093Z,11.27
2018-12-06T02:54:16.925Z,11.00
2018-12-06T02:56:27.794Z,9.33
2018-12-06T02:58:38.654Z,9.83
2018-12-06T03:00:49.487Z,9.23
2018-12-06T03:03:00.330Z,9.87
2018-12-06T03:05:11.182Z,10.43
2018-12-06T03:07:22.030Z,11.17
2018-12-06T03:09:32.848Z,11.13
2018-12-06T03:11:43.702Z,12.40
2018-12-06T03:13:54.540Z,13.30
2018-12-06T03:16:05.361Z,11.90
2018-12-06T03:18:16.194Z,10.93
2018-12-06T03:20:27.050Z,12.93
2018-12-06T03:22:37.872Z,10.70
2018-12-06T03:24:48.699Z,9.37
2018-12-06T03:26:59.567Z,12.17
2018-12-06T03:29:10.397Z,9.97
2018-12-06T03:31:21.246Z,12.47
2018-12-06T03:33:32.166Z,11.27
2018-12-06T03:35:43.008Z,9.10
2018-12-06T03:37:53.845Z,10.03
2018-12-06T03:40:05.412Z,10.57
2018-12-06T03:42:16.251Z,10.10
2018-12-06T03:44:27.189Z,12.90
2018-12-06T03:46:38.176Z,11.53
2018-12-06T03:48:49.004Z,10.30
2018-12-06T03:50:59.826Z,12.07
2018-12-06T03:53:10.670Z,11.23
2018-12-06T03:55:21.481Z,11.43
2018-12-06T03:57:32.321Z,11.63
2018-12-06T03:59:43.137Z,12.00
2018-12-06T04:01:54.125Z,8.87
2018-12-06T04:04:05.009Z,12.20
2018-12-06T04:06:15.869Z,11.20
2018-12-06T04:08:26.724Z,9.63
2018-12-06T04:10:37.556Z,9.07
2018-12-06T04:12:48.581Z,10.23
2018-12-06T04:14:59.414Z,11.23
2018-12-06T04:17:10.373Z,9.13
2018-12-06T04:19:21.312Z,8.33
2018-12-06T04:21:32.256Z,9.70
2018-12-06T04:23:43.080Z,9.60
2018-12-06T04:25:53.921Z,10.90
2018-12-06T04:28:04.896Z,7.83
2018-12-06T04:30:15.721Z,9.57
2018-12-06T04:32:26.553Z,8.03
2018-12-06T04:34:37.514Z,9.47
2018-12-06T04:36:48.539Z,10.00
2018-12-06T04:38:59.518Z,11.23
2018-12-06T04:41:10.333Z,11.67
2018-12-06T04:43:21.229Z,9.53
2018-12-06T04:45:32.095Z,10.27
2018-12-06T04:47:42.917Z,14.17
2018-12-06T04:49:53.769Z,10.13
2018-12-06T04:52:04.711Z,12.17
2018-12-06T04:54:15.528Z,11.07
2018-12-06T04:56:26.385Z,11.57
2018-12-06T04:58:37.206Z,8.90
2018-12-06T05:00:48.061Z,9.73
2018-12-06T05:02:58.884Z,10.13
2018-12-06T05:05:09.853Z,11.43
2018-12-06T05:07:20.789Z,11.03
2018-12-06T05:09:31.610Z,10.63
2018-12-06T05:11:42.471Z,9.27
2018-12-06T05:13:53.300Z,10.17
2018-12-06T05:16:04.165Z,8.90
2018-12-06T05:18:14.979Z,6.43
2018-12-06T05:20:25.887Z,7.33
2018-12-06T05:22:36.744Z,11.03
2018-12-06T05:24:47.573Z,11.30
2018-12-06T05:26:58.417Z,8.80
2018-12-06T05:29:09.234Z,11.43
2018-12-06T05:31:20.084Z,11.23
2018-12-06T05:33:30.930Z,12.40
2018-12-06T05:35:41.765Z,9.43
2018-12-06T05:37:52.751Z,11.17
2018-12-06T05:40:03.818Z,9.47
2018-12-06T05:42:14.752Z,8.57
2018-12-06T05:44:25.605Z,8.97
2018-12-06T05:46:36.417Z,7.53
2018-12-06T05:48:47.254Z,9.53
2018-12-06T05:50:58.100Z,9.00
2018-12-06T05:53:08.961Z,9.93
2018-12-06T05:55:19.789Z,8.37
2018-12-06T05:57:30.629Z,9.40
2018-12-06T05:59:41.475Z,8.67
2018-12-06T06:01:52.409Z,9.07
2018-12-06T06:04:03.389Z,9.50
2018-12-06T06:06:14.248Z,12.50
2018-12-06T06:08:25.190Z,9.63
2018-12-06T06:10:36.013Z,9.87
2018-12-06T06:12:46.910Z,9.47
2018-12-06T06:14:57.749Z,8.40
2018-12-06T06:17:08.558Z,9.07
2018-12-06T06:19:19.397Z,9.10
2018-12-06T06:21:30.230Z,10.53
2018-12-06T06:23:41.069Z,8.33
2018-12-06T06:25:51.980Z,8.27
2018-12-06T06:28:02.844Z,9.43
2018-12-06T06:30:13.691Z,9.77
2018-12-06T06:32:24.529Z,8.47
2018-12-06T06:34:35.368Z,11.80
2018-12-06T06:36:46.205Z,10.40
2018-12-06T06:38:57.073Z,10.03
2018-12-06T06:41:07.940Z,8.43
2018-12-06T06:43:18.778Z,8.50
2018-12-06T06:45:29.674Z,11.60
2018-12-06T06:47:40.548Z,7.23
2018-12-06T06:49:51.453Z,7.73
2018-12-06T06:52:02.337Z,11.83
2018-12-06T06:54:13.177Z,10.67
2018-12-06T06:56:24.056Z,8.93
2018-12-06T06:58:34.986Z,9.33
2018-12-06T07:00:45.868Z,8.70
2018-12-06T07:02:56.721Z,9.10
2018-12-06T07:05:07.774Z,11.90
2018-12-06T07:07:18.631Z,7.73
2018-12-06T07:09:29.493Z,10.03
2018-12-06T07:11:40.483Z,8.63
2018-12-06T07:13:51.344Z,8.27
2018-12-06T07:16:02.250Z,8.83
2018-12-06T07:18:13.077Z,8.27
2018-12-06T07:20:23.954Z,9.30
2018-12-06T07:22:34.825Z,10.07
2018-12-06T07:24:45.651Z,9.03
2018-12-06T07:26:56.504Z,11.57
2018-12-06T07:29:07.348Z,9.70
2018-12-06T07:31:18.298Z,9.93
2018-12-06T07:33:29.133Z,13.07
2018-12-06T07:35:39.989Z,12.10
2018-12-06T07:37:50.874Z,10.50
2018-12-06T07:40:02.087Z,11.17
2018-12-06T07:42:13.065Z,11.10
2018-12-06T07:44:24.014Z,11.63
2018-12-06T07:46:34.978Z,12.00
2018-12-06T07:48:45.861Z,9.90
2018-12-06T07:50:56.914Z,9.47
2018-12-06T07:53:07.777Z,11.07
2018-12-06T07:55:18.652Z,12.57
2018-12-06T07:57:29.488Z,10.37
2018-12-06T07:59:40.318Z,13.73
2018-12-06T08:01:51.216Z,12.47
2018-12-06T08:04:02.218Z,13.27
2018-12-06T08:06:13.045Z,11.10
2018-12-06T08:08:24.031Z,12.10
2018-12-06T08:10:34.879Z,12.53
2018-12-06T08:12:45.732Z,12.03
2018-12-06T08:14:56.588Z,12.43
2018-12-06T08:17:07.453Z,12.17
2018-12-06T08:19:18.312Z,13.10
2018-12-06T08:21:29.142Z,10.97
2018-12-06T08:23:39.995Z,9.90
2018-12-06T08:25:50.821Z,12.13
2018-12-06T08:28:01.689Z,13.37
2018-12-06T08:30:12.552Z,14.20
2018-12-06T08:32:23.435Z,12.17
2018-12-06T08:34:34.344Z,13.60
2018-12-06T08:36:45.173Z,12.10
2018-12-06T08:38:56.014Z,13.50
2018-12-06T08:41:06.889Z,15.60
2018-12-06T08:43:17.843Z,11.10
2018-12-06T08:45:28.737Z,11.87
2018-12-06T08:47:39.597Z,10.30
2018-12-06T08:49:50.477Z,10.70
2018-12-06T08:52:01.365Z,12.97
2018-12-06T08:54:12.234Z,14.87
2018-12-06T08:56:23.102Z,11.60
2018-12-06T08:58:33.939Z,9.93
2018-12-06T09:00:44.782Z,10.80
2018-12-06T09:02:55.632Z,10.53
2018-12-06T09:05:06.636Z,12.23
2018-12-06T09:07:17.561Z,12.13
2018-12-06T09:09:28.457Z,12.43
2018-12-06T09:11:39.311Z,11.40
2018-12-06T09:13:50.193Z,12.57
2018-12-06T09:16:01.054Z,11.47
2018-12-06T09:18:11.901Z,8.80
2018-12-06T09:20:22.749Z,12.30
2018-12-06T09:22:33.632Z,10.80
2018-12-06T09:24:44.497Z,11.50
2018-12-06T09:26:58.777Z,14.50
2018-12-06T09:29:09.181Z,11.37
2018-12-06T09:31:20.034Z,11.00
2018-12-06T09:33:30.892Z,10.00
2018-12-06T09:35:41.728Z,9.77
2018-12-06T09:37:52.667Z,10.43
2018-12-06T09:40:04.079Z,9.07
2018-12-06T09:42:14.953Z,9.57
2018-12-06T09:44:25.839Z,11.70
2018-12-06T09:46:36.846Z,10.50
2018-12-06T09:48:47.708Z,10.67
2018-12-06T09:50:58.686Z,8.63
2018-12-06T09:53:09.638Z,10.80
2018-12-06T09:55:20.495Z,9.67
2018-12-06T09:57:31.395Z,10.80
2018-12-06T09:59:42.261Z,9.13
2018-12-06T10:01:53.097Z,9.07
2018-12-06T10:04:03.962Z,10.87
2018-12-06T10:06:14.801Z,7.90
2018-12-06T10:08:25.717Z,9.93
2018-12-06T10:10:36.537Z,9.37
2018-12-06T10:12:47.473Z,9.13
2018-12-06T10:14:58.327Z,10.80
2018-12-06T10:17:09.264Z,8.57
2018-12-06T10:19:20.137Z,8.30
2018-12-06T10:21:30.972Z,6.83
2018-12-06T10:23:41.838Z,7.87
2018-12-06T10:25:52.677Z,8.53
2018-12-06T10:28:03.562Z,6.97
2018-12-06T10:30:14.411Z,6.97
2018-12-06T10:32:25.277Z,6.67
2018-12-06T10:34:36.196Z,8.53
2018-12-06T10:36:47.053Z,8.47
2018-12-06T10:38:57.902Z,6.77
2018-12-06T10:41:08.758Z,7.20
2018-12-06T10:43:19.611Z,8.00
2018-12-06T10:45:30.502Z,7.30
2018-12-06T10:47:41.401Z,7.40
2018-12-06T10:49:52.293Z,7.27
2018-12-06T10:52:03.131Z,7.10
2018-12-06T10:54:13.999Z,8.20
2018-12-06T10:56:24.829Z,6.87
2018-12-06T10:58:35.707Z,7.30
2018-12-06T11:00:57.251Z,10.40
2018-12-06T11:03:10.813Z,8.37
2018-12-06T11:05:21.665Z,8.47
2018-12-06T11:07:32.516Z,7.27
2018-12-06T11:09:43.368Z,8.60
2018-12-06T11:11:54.355Z,6.53
2018-12-06T11:14:05.209Z,7.77
2018-12-06T11:16:16.097Z,5.77
2018-12-06T11:18:26.947Z,6.43
2018-12-06T11:20:37.807Z,7.57
2018-12-06T11:22:48.644Z,7.97
2018-12-06T11:24:59.522Z,8.57
2018-12-06T11:27:44.491Z,6.57
2018-12-06T11:29:55.362Z,7.07
2018-12-06T11:32:06.240Z,9.63
2018-12-06T11:34:17.125Z,7.37
2018-12-06T11:36:28.029Z,6.97
2018-12-06T11:38:38.925Z,8.27
2018-12-06T11:40:49.795Z,6.50
2018-12-06T11:43:00.695Z,6.50
2018-12-06T11:45:11.552Z,5.37
2018-12-06T11:47:22.398Z,5.60
2018-12-06T11:49:33.235Z,6.63
2018-12-06T11:51:44.277Z,7.57
2018-12-06T11:53:55.132Z,4.73
2018-12-06T11:56:05.981Z,7.47
2018-12-06T11:58:16.869Z,8.40
2018-12-06T12:00:27.746Z,5.90
2018-12-06T12:02:38.638Z,5.83
2018-12-06T12:04:49.474Z,6.17
2018-12-06T12:07:00.355Z,7.03
2018-12-06T12:09:11.241Z,7.87
2018-12-06T12:11:22.085Z,8.73
2018-12-06T12:13:32.945Z,7.57
2018-12-06T12:15:43.803Z,6.20
2018-12-06T12:17:54.665Z,6.80
2018-12-06T12:20:06.367Z,6.43
2018-12-06T12:22:17.328Z,7.07
2018-12-06T12:24:28.201Z,7.10
2018-12-06T12:26:39.036Z,7.50
2018-12-06T12:28:49.897Z,5.87
2018-12-06T12:31:01.175Z,8.27
2018-12-06T12:33:12.054Z,6.17
2018-12-06T12:35:22.938Z,7.80
2018-12-06T12:37:33.925Z,7.43
2018-12-06T12:39:44.768Z,6.47
2018-12-06T12:41:55.640Z,7.20
2018-12-06T12:44:06.682Z,5.63
2018-12-06T12:46:17.648Z,8.27
2018-12-06T12:48:28.548Z,8.67
2018-12-06T12:50:39.410Z,6.60
2018-12-06T12:52:50.271Z,5.20
2018-12-06T12:55:01.146Z,4.77
2018-12-06T12:57:12.042Z,6.97
2018-12-06T12:59:22.910Z,5.27
2018-12-06T13:01:33.771Z,6.77
2018-12-06T13:03:44.625Z,4.07
2018-12-06T13:05:55.522Z,6.37
2018-12-06T13:08:06.369Z,6.00
2018-12-06T13:10:17.253Z,6.30
2018-12-06T13:12:28.253Z,6.43
2018-12-06T13:14:39.094Z,6.87
2018-12-06T13:16:49.965Z,7.13
2018-12-06T13:19:00.840Z,10.87
2018-12-06T13:21:11.671Z,7.93
2018-12-06T13:23:22.507Z,7.53
2018-12-06T13:25:33.385Z,6.03
2018-12-06T13:27:44.391Z,7.13
2018-12-06T13:29:55.268Z,4.53
2018-12-06T13:32:06.135Z,5.70
2018-12-06T13:34:17.053Z,5.37
2018-12-06T13:36:27.961Z,3.90
2018-12-06T13:38:38.853Z,4.00
2018-12-06T13:40:49.718Z,3.67
2018-12-06T13:43:00.765Z,3.70
2018-12-06T13:45:11.670Z,4.30
2018-12-06T13:47:22.537Z,5.20
2018-12-06T13:49:33.424Z,4.30
2018-12-06T13:51:44.313Z,3.53
2018-12-06T13:53:55.273Z,4.30
2018-12-06T13:56:06.142Z,3.57
2018-12-06T13:58:17.014Z,3.87
2018-12-06T14:00:27.965Z,4.97
2018-12-06T14:02:38.966Z,4.53
2018-12-06T14:04:49.849Z,5.77
2018-12-06T14:07:00.729Z,4.67
2018-12-06T14:09:11.739Z,5.03
2018-12-06T14:11:22.573Z,5.90
2018-12-06T14:13:33.450Z,4.90
2018-12-06T14:15:44.324Z,5.93
2018-12-06T14:17:55.203Z,5.13
2018-12-06T14:20:06.914Z,4.67
2018-12-06T14:22:17.780Z,5.17
2018-12-06T14:24:28.792Z,6.47
2018-12-06T14:26:39.774Z,3.43
2018-12-06T14:28:50.646Z,3.60
2018-12-06T14:31:01.491Z,3.03
2018-12-06T14:33:12.342Z,5.33
2018-12-06T14:35:23.206Z,3.87
2018-12-06T14:37:34.084Z,3.07
2018-12-06T14:39:45.072Z,4.47
2018-12-06T14:41:55.908Z,4.90
2018-12-06T14:44:06.846Z,4.67
2018-12-06T14:46:17.753Z,4.73
2018-12-06T14:48:28.649Z,4.37
2018-12-06T14:50:39.523Z,4.50
2018-12-06T14:52:50.432Z,4.07
2018-12-06T14:55:01.300Z,3.87
2018-12-06T14:57:12.506Z,3.97
2018-12-06T14:59:23.617Z,3.53
2018-12-06T15:01:34.494Z,4.37
2018-12-06T15:03:45.390Z,3.83
2018-12-06T15:05:56.263Z,6.13
2018-12-06T15:08:07.170Z,2.90
2018-12-06T15:10:18.004Z,4.93
2018-12-06T15:12:29.018Z,7.20
2018-12-06T15:14:39.877Z,6.17
2018-12-06T15:16:50.894Z,6.07
2018-12-06T15:19:01.798Z,6.80
2018-12-06T15:21:12.669Z,5.33
2018-12-06T15:23:23.505Z,3.70
2018-12-06T15:25:41.647Z,6.80
2018-12-06T15:27:47.501Z,5.97
2018-12-06T15:29:58.477Z,4.27
2018-12-06T15:32:09.394Z,4.80
2018-12-06T15:34:20.274Z,4.57
2018-12-06T15:36:31.133Z,3.57
2018-12-06T15:38:41.980Z,4.93
2018-12-06T15:40:52.877Z,3.33
2018-12-06T15:43:03.761Z,4.47
2018-12-06T15:45:14.660Z,3.60
2018-12-06T15:47:25.577Z,2.70
2018-12-06T15:49:36.441Z,4.87
2018-12-06T15:51:47.282Z,5.20
2018-12-06T15:53:58.165Z,4.83
2018-12-06T15:56:09.010Z,3.57
2018-12-06T15:58:19.920Z,4.47
2018-12-06T16:00:30.786Z,5.23
2018-12-06T16:02:41.681Z,6.17
2018-12-06T16:04:52.550Z,5.10
2018-12-06T16:07:03.470Z,4.33
2018-12-06T16:09:14.496Z,4.33
2018-12-06T16:11:25.392Z,5.27
2018-12-06T16:13:36.241Z,4.10
2018-12-06T16:15:47.145Z,2.90
2018-12-06T16:17:58.102Z,5.47
2018-12-06T16:20:09.087Z,4.80
2018-12-06T16:22:19.958Z,3.73
2018-12-06T16:24:30.808Z,5.10
2018-12-06T16:26:41.661Z,5.43
2018-12-06T16:28:52.618Z,5.20
2018-12-06T16:31:03.498Z,5.00
2018-12-06T16:33:14.349Z,5.17
2018-12-06T16:35:25.240Z,4.20
2018-12-06T16:37:36.124Z,4.30
2018-12-06T16:39:47.020Z,4.50
2018-12-06T16:41:57.924Z,5.07
2018-12-06T16:44:08.769Z,6.57
2018-12-06T16:46:19.648Z,4.30
2018-12-06T16:48:30.639Z,2.63
2018-12-06T16:50:41.542Z,5.93
2018-12-06T16:52:52.400Z,5.13
2018-12-06T16:55:03.672Z,3.10
2018-12-06T16:57:14.822Z,3.00
2018-12-06T16:59:25.964Z,3.67
2018-12-06T17:01:36.846Z,4.43
2018-12-06T17:03:47.998Z,4.20
2018-12-06T17:05:59.196Z,3.80
2018-12-06T17:08:10.385Z,3.87
2018-12-06T17:10:21.594Z,3.37
2018-12-06T17:12:32.764Z,2.83
2018-12-06T17:14:43.676Z,2.87
2018-12-06T17:16:54.566Z,3.33
2018-12-06T17:19:05.471Z,4.13
2018-12-06T17:21:16.393Z,3.57
2018-12-06T17:23:27.339Z,3.03
2018-12-06T17:25:38.220Z,2.67
2018-12-06T17:27:49.106Z,3.93
2018-12-06T17:30:00.199Z,5.23
2018-12-06T17:32:11.064Z,3.17
2018-12-06T17:34:21.975Z,3.63
2018-12-06T17:36:32.839Z,4.53
2018-12-06T17:38:44.037Z,4.20
2018-12-06T17:40:55.236Z,2.63
2018-12-06T17:43:06.543Z,3.43
2018-12-06T17:45:17.499Z,3.97
2018-12-06T17:47:28.365Z,2.60
2018-12-06T17:49:39.465Z,4.23
2018-12-06T17:51:50.640Z,4.00
2018-12-06T17:54:01.833Z,3.00
2018-12-06T17:56:12.799Z,3.37
2018-12-06T17:58:23.651Z,2.87
2018-12-06T18:00:34.661Z,3.93
2018-12-06T18:02:45.569Z,2.87
2018-12-06T18:04:56.430Z,4.73
2018-12-06T18:07:07.293Z,4.13
2018-12-06T18:09:18.132Z,3.50
2018-12-06T18:11:29.037Z,3.90
2018-12-06T18:13:40.353Z,2.97
2018-12-06T18:15:51.363Z,4.40
2018-12-06T18:18:02.244Z,3.13
2018-12-06T18:20:13.133Z,5.87
2018-12-06T18:22:24.147Z,3.17
2018-12-06T18:24:35.000Z,4.20
2018-12-06T18:26:45.889Z,2.63
2018-12-06T18:28:56.717Z,3.00
2018-12-06T18:31:08.007Z,4.43
2018-12-06T18:33:18.939Z,3.43
2018-12-06T18:35:29.790Z,5.57
2018-12-06T18:37:40.647Z,4.90
2018-12-06T18:39:51.546Z,4.47
2018-12-06T18:42:02.544Z,2.47
2018-12-06T18:44:13.446Z,2.30
2018-12-06T18:46:24.380Z,3.53
2018-12-06T18:48:35.257Z,1.87
2018-12-06T18:50:46.085Z,2.17
2018-12-06T18:52:56.991Z,2.90
2018-12-06T18:55:07.828Z,1.93
2018-12-06T18:57:18.990Z,3.47
2018-12-06T18:59:30.229Z,2.60
2018-12-06T19:01:41.385Z,1.77
2018-12-06T19:03:52.780Z,1.30
2018-12-06T19:06:03.782Z,2.57
2018-12-06T19:08:14.633Z,1.90
2018-12-06T19:10:25.762Z,2.00
2018-12-06T19:12:36.767Z,3.40
2018-12-06T19:14:47.649Z,3.83
2018-12-06T19:16:58.488Z,2.77
2018-12-06T19:19:09.745Z,4.33
2018-12-06T19:21:20.683Z,1.77
2018-12-06T19:23:31.852Z,2.50
2018-12-06T19:25:42.946Z,2.00
2018-12-06T19:27:54.063Z,2.20
2018-12-06T19:30:07.765Z,2.57
2018-12-06T19:32:18.641Z,2.17
2018-12-06T19:34:29.693Z,2.83
2018-12-06T19:36:40.848Z,3.27
2018-12-06T19:38:51.726Z,2.87
2018-12-06T19:41:02.859Z,3.33
2018-12-06T19:43:13.757Z,4.07
2018-12-06T19:45:24.703Z,3.23
2018-12-06T19:47:35.898Z,2.60
2018-12-06T19:49:46.840Z,4.30
2018-12-06T19:51:58.041Z,2.87
2018-12-06T19:54:09.241Z,2.67
2018-12-06T19:56:20.189Z,2.40
2018-12-06T19:58:31.334Z,2.20
2018-12-06T20:00:42.534Z,2.10
2018-12-06T20:02:53.734Z,2.60
2018-12-06T20:05:05.469Z,2.37
2018-12-06T20:07:16.380Z,3.03
2018-12-06T20:09:27.532Z,2.13
2018-12-06T20:11:38.727Z,2.33
2018-12-06T20:13:49.910Z,1.87
2018-12-06T20:16:01.054Z,3.73
2018-12-06T20:18:12.230Z,2.90
2018-12-06T20:20:24.045Z,1.57
2018-12-06T20:22:35.447Z,1.70
2018-12-06T20:24:46.353Z,1.97
2018-12-06T20:26:57.243Z,3.27
2018-12-06T20:29:08.110Z,2.30
2018-12-06T20:31:19.229Z,1.30
2018-12-06T20:33:30.190Z,1.63
2018-12-06T20:35:41.097Z,1.57
2018-12-06T20:37:51.993Z,2.23
2018-12-06T20:40:03.321Z,2.40
2018-12-06T20:42:14.297Z,1.57
2018-12-06T20:44:25.185Z,1.60
2018-12-06T20:46:36.043Z,2.00
2018-12-06T20:48:46.917Z,1.90
2018-12-06T20:50:57.765Z,2.17
2018-12-06T20:53:08.698Z,1.77
2018-12-06T20:55:19.571Z,3.17
2018-12-06T20:57:36.965Z,3.03
2018-12-06T20:59:43.329Z,3.50
2018-12-06T21:01:54.961Z,2.70
2018-12-06T21:04:06.024Z,1.60
2018-12-06T21:06:16.925Z,2.63
2018-12-06T21:08:27.810Z,2.57
2018-12-06T21:10:38.715Z,2.73
2018-12-06T21:12:49.588Z,2.77
2018-12-06T21:15:00.466Z,2.00
2018-12-06T21:17:11.300Z,2.07
2018-12-06T21:19:22.304Z,1.97
2018-12-06T21:21:33.286Z,2.90
2018-12-06T21:23:44.126Z,1.93
2018-12-06T21:25:55.037Z,2.37
2018-12-06T21:28:05.897Z,1.50
2018-12-06T21:30:16.812Z,2.37
2018-12-06T21:32:27.649Z,2.77
2018-12-06T21:34:38.497Z,1.40
2018-12-06T21:36:49.389Z,3.90
2018-12-06T21:39:00.249Z,1.40
2018-12-06T21:41:11.121Z,1.40
2018-12-06T21:43:22.205Z,1.50
2018-12-06T21:45:33.638Z,2.10
2018-12-06T21:47:44.696Z,1.67
2018-12-06T21:49:55.767Z,1.80
2018-12-06T21:52:06.622Z,1.73
2018-12-06T21:54:17.481Z,3.73
2018-12-06T21:56:28.348Z,1.77
2018-12-06T21:58:39.185Z,2.47
2018-12-06T22:00:50.095Z,2.17
2018-12-06T22:03:00.976Z,1.93
2018-12-06T22:05:11.838Z,3.67
2018-12-06T22:07:22.831Z,1.47
2018-12-06T22:09:33.818Z,2.70
2018-12-06T22:11:44.677Z,1.40
2018-12-06T22:13:55.544Z,2.20
2018-12-06T22:16:06.394Z,1.93
2018-12-06T22:18:17.361Z,1.53
2018-12-06T22:20:28.217Z,2.40
2018-12-06T22:22:39.084Z,1.57
2018-12-06T22:24:49.968Z,1.20
2018-12-06T22:27:00.786Z,2.33
2018-12-06T22:29:11.788Z,1.93
2018-12-06T22:31:22.630Z,1.40
2018-12-06T22:33:33.533Z,2.67
2018-12-06T22:35:44.368Z,1.20
2018-12-06T22:37:55.225Z,1.40
2018-12-06T22:40:06.066Z,1.23
2018-12-06T22:42:16.926Z,1.77
2018-12-06T22:44:27.802Z,1.67
2018-12-06T22:46:38.653Z,1.27
2018-12-06T22:48:49.631Z,1.40
2018-12-06T22:51:00.595Z,1.20
2018-12-06T22:53:11.440Z,1.40
2018-12-06T22:55:22.329Z,1.73
2018-12-06T22:57:33.165Z,1.40
2018-12-06T22:59:44.037Z,2.03
2018-12-06T23:01:54.909Z,1.67
2018-12-06T23:04:06.291Z,1.67
2018-12-06T23:06:17.148Z,3.00
2018-12-06T23:08:28.014Z,1.87
2018-12-06T23:10:38.879Z,1.87
2018-12-06T23:12:49.705Z,1.40
2018-12-06T23:15:00.549Z,2.60
2018-12-06T23:17:11.390Z,1.20
2018-12-06T23:19:22.252Z,2.17
2018-12-06T23:21:33.117Z,1.20
2018-12-06T23:23:43.949Z,0.90
2018-12-06T23:25:54.811Z,1.10
2018-12-06T23:28:05.653Z,0.87
2018-12-06T23:30:16.548Z,1.23
2018-12-06T23:32:27.393Z,1.30
2018-12-06T23:34:38.278Z,1.97
2018-12-06T23:36:49.142Z,1.10
2018-12-06T23:39:00.313Z,1.10
2018-12-06T23:41:12.099Z,1.87
2018-12-06T23:43:22.953Z,1.00
2018-12-06T23:45:33.824Z,1.13
2018-12-06T23:47:44.667Z,2.23
2018-12-06T23:49:55.512Z,1.20
2018-12-06T23:52:06.363Z,1.30
2018-12-06T23:54:17.218Z,1.20
2018-12-06T23:56:28.067Z,0.90
2018-12-06T23:58:38.878Z,1.10
